PWSweather.com
Personal Weather Stations
Station Observations
SANDHURSTWX
SandhurstGB

SandhurstGB

Lat: 51.3522, Lon: -0.7739

Elevation: 272.3

Station Type: Davis VP2

www.sandhurstweather.org.uk

High Low Average
Temperature 75.6°F24.2°C 53.8°F12.1°C 63.5°F17.5°C
Dew Point 63.0°F17.2°C 52.4°F11.3°C 58.8°F14.9°C
Winds 5.8 mph 9.3 kmh Calm Calm 2.0 mph SW3.2 kmh SW
Wind Gusts 8.1 mph13.0 kmh -- 3.0 mph4.8 kmh
Humidity 97% 63% 85%
Pressure 30.39 in1029.1 mb 30.25 in1024.4 mb -
Precipitation 0.00 in0.0 mm - -
Hour Temp Dew Point Humidity Winds Wind Gusts Pressure Precip Precip Rate Daily Precip Total
12:00 AM 56.9°F13.8°C 54.6°F12.6°C 92% Calm Calm -- 30.25 in1024.4 mb - 0.00 in0.0 mm 0.00 in0.0 mm
01:00 AM 56.6°F13.7°C 54.6°F12.6°C 93% Calm Calm -- 30.26 in1024.7 mb - 0.00 in0.0 mm 0.00 in0.0 mm
02:00 AM 55.5°F13.1°C 53.5°F11.9°C 93% Calm Calm 1.2 mph1.9 kmh 30.27 in1025.1 mb - 0.00 in0.0 mm 0.00 in0.0 mm
03:00 AM 54.7°F12.6°C 53.0°F11.7°C 94% Calm Calm -- 30.27 in1025.1 mb - 0.00 in0.0 mm 0.00 in0.0 mm
04:00 AM 54.4°F12.4°C 53.0°F11.7°C 95% 1.2 mph WSW1.9 kmh WSW 2.3 mph3.7 kmh 30.28 in1025.4 mb - 0.00 in0.0 mm 0.00 in0.0 mm
05:00 AM 53.8°F12.1°C 52.4°F11.3°C 95% Calm Calm -- 30.28 in1025.4 mb - 0.00 in0.0 mm 0.00 in0.0 mm
06:00 AM 54.4°F12.4°C 53.3°F11.8°C 96% Calm Calm -- 30.30 in1026.1 mb - 0.00 in0.0 mm 0.00 in0.0 mm
07:00 AM 56.9°F13.8°C 56.1°F13.4°C 97% 1.2 mph WSW1.9 kmh WSW 2.3 mph3.7 kmh 30.32 in1026.8 mb - 0.00 in0.0 mm 0.00 in0.0 mm
08:00 AM 60.6°F15.9°C 59.2°F15.1°C 95% 2.3 mph SSW3.7 kmh SSW 4.6 mph7.4 kmh 30.32 in1026.8 mb - 0.00 in0.0 mm 0.00 in0.0 mm
09:00 AM 64.1°F17.8°C 61.1°F16.2°C 90% 2.3 mph SW3.7 kmh SW 3.5 mph5.6 kmh 30.34 in1027.4 mb - 0.00 in0.0 mm 0.00 in0.0 mm
10:00 AM 67.3°F19.6°C 62.3°F16.8°C 84% 3.5 mph SSW5.6 kmh SSW 2.3 mph3.7 kmh 30.36 in1028.1 mb - 0.00 in0.0 mm 0.00 in0.0 mm
11:00 AM 71.3°F21.8°C 63.0°F17.2°C 75% 2.3 mph SSW3.7 kmh SSW 5.8 mph9.3 kmh 30.35 in1027.8 mb - 0.00 in0.0 mm 0.00 in0.0 mm
12:00 PM 71.5°F21.9°C 61.6°F16.4°C 71% 3.5 mph SSW5.6 kmh SSW 5.8 mph9.3 kmh 30.35 in1027.8 mb - 0.00 in0.0 mm 0.00 in0.0 mm
01:00 PM 75.6°F24.2°C 62.1°F16.7°C 63% 3.5 mph WSW5.6 kmh WSW 4.6 mph7.4 kmh 30.33 in1027.1 mb - 0.00 in0.0 mm 0.00 in0.0 mm
02:00 PM 72.1°F22.3°C 62.6°F17.0°C 72% 3.5 mph SW5.6 kmh SW 5.8 mph9.3 kmh 30.33 in1027.1 mb - 0.00 in0.0 mm 0.00 in0.0 mm
03:00 PM 71.9°F22.2°C 62.8°F17.1°C 73% 3.5 mph S5.6 kmh S 5.8 mph9.3 kmh 30.32 in1026.8 mb - 0.00 in0.0 mm 0.00 in0.0 mm
04:00 PM 70.4°F21.3°C 62.1°F16.7°C 75% 2.3 mph SSW3.7 kmh SSW 4.6 mph7.4 kmh 30.32 in1026.8 mb - 0.00 in0.0 mm 0.00 in0.0 mm
05:00 PM 69.1°F20.6°C 62.3°F16.8°C 79% 5.8 mph SSW9.3 kmh SSW 8.1 mph13.0 kmh 30.33 in1027.1 mb - 0.00 in0.0 mm 0.00 in0.0 mm
06:00 PM 66.6°F19.2°C 61.3°F16.3°C 83% 3.5 mph SSW5.6 kmh SSW 4.6 mph7.4 kmh 30.34 in1027.4 mb - 0.00 in0.0 mm 0.00 in0.0 mm
07:00 PM 64.6°F18.1°C 60.4°F15.8°C 86% 2.3 mph SSW3.7 kmh SSW 3.5 mph5.6 kmh 30.35 in1027.8 mb - 0.00 in0.0 mm 0.00 in0.0 mm
08:00 PM 64.5°F18.1°C 60.6°F15.9°C 87% 2.3 mph SSW3.7 kmh SSW 3.5 mph5.6 kmh 30.37 in1028.4 mb - 0.00 in0.0 mm 0.00 in0.0 mm
09:00 PM 64.1°F17.8°C 59.8°F15.4°C 86% 2.3 mph SSW3.7 kmh SSW 2.3 mph3.7 kmh 30.38 in1028.8 mb - 0.00 in0.0 mm 0.00 in0.0 mm
10:00 PM 63.5°F17.5°C 59.6°F15.3°C 87% 1.2 mph SSW1.9 kmh SSW 3.5 mph5.6 kmh 30.39 in1029.1 mb - 0.00 in0.0 mm 0.00 in0.0 mm
11:00 PM 63.2°F17.3°C 59.6°F15.3°C 88% Calm Calm -- 30.39 in1029.1 mb - 0.00 in0.0 mm 0.00 in0.0 mm